Bookmark and Share
Track history (hours):
 

Kamikawa Maru

Last reported at 2014-Apr-15 19:25 UTC. Time now 2014-Apr-18 00:14 UTC.
Position N 36°24' E 141°05'.

Length 162 m; draft 6.8 m.

Type: Cargo ship. MMSI: 431101012.

NotesDate/timePositionNaut miles runAvg speedWind from/ knotsBaromVisibWave heightAir tempDewpointWater temp
2014-Apr-15 19:25N 36°24' E 141°05'1719.3
2014-Apr-15 18:33N 36°08' E 141°03'1919.2
2014-Apr-15 17:33N 35°49' E 141°00'4219.9
2014-Apr-15 15:27N 35°11' E 140°38'3512.2
2014-Apr-15 12:33N 34°50' E 140°03'1717.3
2014-Apr-15 11:34N 34°55' E 139°43'1817.7
2014-Apr-15 10:34N 35°13' E 139°46'1212.4
2014-Apr-15 09:34N 35°25' E 139°44'1312.7
2014-Apr-15 08:34N 35°38' E 139°46'0 0.3
2014-Apr-15 07:32N 35°38' E 139°46'0 0.0
2014-Apr-15 05:32N 35°38' E 139°46'0 0.0
2014-Apr-15 03:32N 35°38' E 139°46'0 0.0
2014-Apr-15 02:32N 35°38' E 139°46'0 0.0
2014-Apr-15 01:32N 35°38' E 139°46'0 0.0
2014-Apr-14 23:32N 35°38' E 139°46'0 0.0
2014-Apr-14 22:32N 35°38' E 139°46'3 1.6
2014-Apr-14 20:33N 35°35' E 139°47'1111.5
2014-Apr-14 19:34N 35°24' E 139°46'1110.9
2014-Apr-14 18:34N 35°13' E 139°47'1716.5
2014-Apr-14 17:34N 34°57' E 139°44'1716.5
2014-Apr-14 16:34N 34°54' E 140°04'1919.3
2014-Apr-14 15:34N 35°04' E 140°24'1918.5
2014-Apr-14 14:33N 35°19' E 140°38'1817.6
2014-Apr-14 13:32N 35°34' E 140°51'  
2014-Apr-10 17:34N 35°21' E 140°41'2518.7
2014-Apr-10 16:15N 35°03' E 140°21'1318.8
2014-Apr-10 15:33N 34°56' E 140°07'1917.0
2014-Apr-10 14:27N 34°55' E 139°44'1718.8
2014-Apr-10 13:33N 35°12' E 139°46'1312.9
2014-Apr-10 12:34N 35°24' E 139°43'1313.5
2014-Apr-10 11:34N 35°37' E 139°46'1 0.5
2014-Apr-10 10:30N 35°38' E 139°46'0 0.0
2014-Apr-10 09:30N 35°38' E 139°46'0 0.0
2014-Apr-10 08:30N 35°38' E 139°46'0 0.0
2014-Apr-10 07:30N 35°38' E 139°46'0 0.1
2014-Apr-10 06:33N 35°38' E 139°46'0 0.0
2014-Apr-10 05:30N 35°38' E 139°46'4 3.9
2014-Apr-10 04:34N 35°35' E 139°48'1313.4
2014-Apr-10 03:33N 35°22' E 139°45'1312.5
2014-Apr-10 02:33N 35°09' E 139°46'1919.3
2014-Apr-10 01:33N 34°55' E 139°30'2019.6
2014-Apr-10 00:31N 34°40' E 139°13'21216.3
2014-Apr-09 11:33N 34°07' E 134°59'1818.0
2014-Apr-09 10:33N 34°25' E 135°04'1918.9
2014-Apr-09 09:33N 34°36' E 135°22'2 0.3
2014-Apr-09 03:14N 34°37' E 135°25'710.1
2014-Apr-09 02:33N 34°33' E 135°18'1717.3
2014-Apr-09 01:33N 34°21' E 135°03'1817.9
2014-Apr-09 00:33N 34°04' E 134°58'16714.6
2014-Apr-08 13:06N 34°22' E 138°19'5018.0
2014-Apr-08 10:20N 34°44' E 139°13'1418.6
2014-Apr-08 09:33N 34°54' E 139°25'1919.2
2014-Apr-08 08:33N 35°07' E 139°43'1312.8
2014-Apr-08 07:33N 35°20' E 139°43'1515.1
2014-Apr-08 06:33N 35°34' E 139°48'4 3.3
2014-Apr-08 05:18N 35°38' E 139°46'0 0.0
2014-Apr-08 04:33N 35°38' E 139°46'0 0.0
2014-Apr-08 03:27N 35°38' E 139°46'0 0.0
2014-Apr-08 02:30N 35°38' E 139°46'0 0.0
2014-Apr-08 01:18N 35°38' E 139°46'0 0.0
2014-Apr-08 00:21N 35°38' E 139°46'0 0.0
2014-Apr-07 23:33N 35°38' E 139°46'0 0.0
2014-Apr-07 22:30N 35°38' E 139°46'3 3.7
2014-Apr-07 21:33N 35°35' E 139°48'1111.2
2014-Apr-07 20:33N 35°24' E 139°46'1111.4
2014-Apr-07 19:34N 35°12' E 139°47'2210.8
2014-Apr-07 17:33N 34°56' E 140°04'1917.0
2014-Apr-07 16:25N 35°04' E 140°26'1514.8
2014-Apr-07 15:23N 35°14' E 140°40'3518.1
2014-Apr-07 13:27N 35°46' E 140°58'1618.5
2014-Apr-07 12:33N 36°02' E 140°60'  

Dump ship's entire track history

sailing weather and tide predictions

Kamikawa Maru — JG5687 — position and weather